createdAt,value
2023-03-08T00:01:33.974Z,99387.25
2023-03-08T00:04:35.569Z,99395.22
2023-03-08T00:07:37.716Z,99400.03
2023-03-08T00:10:39.039Z,99404.56
2023-03-08T00:13:41.209Z,99408.03
2023-03-08T00:16:42.562Z,99414.16
2023-03-08T00:19:44.422Z,99409.34
2023-03-08T00:22:45.918Z,99420.97
2023-03-08T00:25:51.605Z,99417.88
2023-03-08T00:28:53.749Z,99423.31
2023-03-08T00:31:55.125Z,99417.88
2023-03-08T00:34:56.544Z,99422.66
2023-03-08T00:37:57.838Z,99425.47
2023-03-08T00:40:59.992Z,99429.28
2023-03-08T00:44:02.125Z,99436.13
2023-03-08T00:47:03.539Z,99433.28
2023-03-08T00:50:06.354Z,99445.50
2023-03-08T00:53:07.899Z,99433.03
2023-03-08T00:56:09.393Z,99433.91
2023-03-08T00:59:11.512Z,99445.88
2023-03-08T01:02:12.844Z,99445.75
2023-03-08T01:05:14.412Z,99445.84
2023-03-08T01:08:17.224Z,99439.50
2023-03-08T01:11:21.352Z,99455.19
2023-03-08T01:14:23.464Z,99453.84
2023-03-08T01:17:25.001Z,99452.72
2023-03-08T01:20:26.530Z,99451.44
2023-03-08T01:23:28.280Z,99450.69
2023-03-08T01:26:29.701Z,99457.25
2023-03-08T01:29:31.688Z,99459.66
2023-03-08T01:32:33.042Z,99460.91
2023-03-08T01:35:34.627Z,99458.84
2023-03-08T01:38:36.514Z,99456.97
2023-03-08T01:41:38.568Z,99466.22
2023-03-08T01:44:52.375Z,99464.53
2023-03-08T01:47:53.852Z,99465.03
2023-03-08T01:50:55.417Z,99469.94
2023-03-08T01:53:59.600Z,99470.03
2023-03-08T01:57:05.300Z,99472.84
2023-03-08T02:00:09.677Z,99467.00
2023-03-08T02:03:11.747Z,99466.56
2023-03-08T02:06:14.587Z,99465.72
2023-03-08T02:09:15.918Z,99475.25
2023-03-08T02:12:17.798Z,99471.31
2023-03-08T02:15:21.272Z,99472.09
2023-03-08T02:21:43.778Z,99475.16
2023-03-08T02:24:45.803Z,99463.94
2023-03-08T02:27:47.957Z,99478.09
2023-03-08T02:30:49.782Z,99473.28
2023-03-08T02:33:51.246Z,99474.34
2023-03-08T02:36:52.703Z,99479.53
2023-03-08T02:39:54.749Z,99478.88
2023-03-08T02:42:56.194Z,99483.13
2023-03-08T02:45:57.504Z,99482.47
2023-03-08T02:48:58.926Z,99487.28
2023-03-08T02:52:00.386Z,99484.72
2023-03-08T02:55:02.396Z,99482.38
2023-03-08T02:58:04.464Z,99478.19
2023-03-08T03:01:10.899Z,99480.59
2023-03-08T03:04:12.534Z,99476.06
2023-03-08T03:07:13.825Z,99476.31
2023-03-08T03:10:16.143Z,99481.19
2023-03-08T03:13:17.615Z,99481.94
2023-03-08T03:16:19.001Z,99485.97
2023-03-08T03:19:20.547Z,99490.03
2023-03-08T03:22:21.877Z,99482.38
2023-03-08T03:25:24.017Z,99489.88
2023-03-08T03:28:25.526Z,99487.50
2023-03-08T03:31:27.193Z,99500.84
2023-03-08T03:34:29.191Z,99490.03
2023-03-08T03:37:30.560Z,99500.97
2023-03-08T03:40:32.714Z,99511.94
2023-03-08T03:43:35.121Z,99520.41
2023-03-08T03:46:36.591Z,99513.88
2023-03-08T03:49:38.156Z,99512.97
2023-03-08T03:52:39.537Z,99525.63
2023-03-08T03:55:41.671Z,99521.97
2023-03-08T03:58:43.324Z,99530.38
2023-03-08T04:01:44.668Z,99530.06
2023-03-08T04:04:48.914Z,99536.53
2023-03-08T04:07:50.215Z,99537.59
2023-03-08T04:10:52.344Z,99543.22
2023-03-08T04:13:53.898Z,99532.28
2023-03-08T04:16:55.760Z,99530.84
2023-03-08T04:19:57.259Z,99539.03
2023-03-08T04:22:58.554Z,99537.38
2023-03-08T04:26:00.881Z,99545.19
2023-03-08T04:29:04.928Z,99541.34
2023-03-08T04:32:06.894Z,99535.03
2023-03-08T04:35:08.987Z,99541.34
2023-03-08T04:38:10.715Z,99546.56
2023-03-08T04:41:13.445Z,99540.50
2023-03-08T04:44:14.756Z,99527.28
2023-03-08T04:47:16.142Z,99527.66
2023-03-08T04:50:17.624Z,99538.19
2023-03-08T04:53:19.034Z,99534.72
2023-03-08T04:56:21.301Z,99528.13
2023-03-08T04:59:22.815Z,99525.19
2023-03-08T05:02:24.318Z,99525.44
2023-03-08T05:05:25.688Z,99529.13
2023-03-08T05:08:27.244Z,99520.50
2023-03-08T05:11:29.269Z,99525.91
2023-03-08T05:14:30.592Z,99525.97
2023-03-08T05:17:32.031Z,99520.78
2023-03-08T05:20:33.346Z,99532.28
2023-03-08T05:23:34.836Z,99531.31
2023-03-08T05:26:36.873Z,99531.00
2023-03-08T05:29:38.364Z,99540.50
2023-03-08T05:32:39.896Z,99540.19
2023-03-08T05:35:41.379Z,99540.53
2023-03-08T05:38:43.441Z,99540.75
2023-03-08T05:41:45.489Z,99539.59
2023-03-08T05:44:46.946Z,99539.69
2023-03-08T05:47:48.260Z,99550.69
2023-03-08T05:50:49.583Z,99544.84
2023-03-08T05:53:51.008Z,99551.44
2023-03-08T05:56:53.009Z,99550.41
2023-03-08T05:59:54.345Z,99548.31
2023-03-08T06:02:58.826Z,99549.94
2023-03-08T06:06:00.142Z,99552.97
2023-03-08T06:09:01.611Z,99557.03
2023-03-08T06:12:03.861Z,99555.78
2023-03-08T06:15:06.546Z,99555.34
2023-03-08T06:18:07.848Z,99554.59
2023-03-08T06:21:12.614Z,99553.06
2023-03-08T06:24:13.951Z,99554.09
2023-03-08T06:27:16.419Z,99563.66
2023-03-08T06:30:18.205Z,99566.31
2023-03-08T06:33:21.257Z,99570.31
2023-03-08T06:36:22.699Z,99577.00
2023-03-08T06:39:24.021Z,99579.84
2023-03-08T06:42:40.226Z,99569.19
2023-03-08T06:45:42.894Z,99569.91
2023-03-08T06:48:44.771Z,99577.41
2023-03-08T06:51:46.247Z,99572.47
2023-03-08T06:54:47.694Z,99569.00
2023-03-08T06:57:49.647Z,99564.16
2023-03-08T07:00:51.163Z,99558.50
2023-03-08T07:03:52.687Z,99560.06
2023-03-08T07:06:54.102Z,99558.16
2023-03-08T07:09:55.597Z,99554.31
2023-03-08T07:12:57.534Z,99558.53
2023-03-08T07:15:59.024Z,99561.25
2023-03-08T07:19:01.741Z,99560.44
2023-03-08T07:22:03.130Z,99563.28
2023-03-08T07:25:05.107Z,99556.19
2023-03-08T07:28:07.259Z,99557.34
2023-03-08T07:31:11.387Z,99554.34
2023-03-08T07:34:12.924Z,99562.81
2023-03-08T07:37:15.487Z,99548.84
2023-03-08T07:40:17.655Z,99556.72
2023-03-08T07:43:19.620Z,99559.63
2023-03-08T07:46:21.211Z,99568.25
2023-03-08T07:49:22.590Z,99565.72
2023-03-08T07:52:27.666Z,99557.63
2023-03-08T07:55:29.006Z,99566.09
2023-03-08T07:58:31.695Z,99561.50
2023-03-08T08:01:33.217Z,99565.56
2023-03-08T08:04:34.636Z,99571.91
2023-03-08T08:07:35.975Z,99563.34
2023-03-08T08:10:37.292Z,99561.41
2023-03-08T08:13:39.558Z,99564.31
2023-03-08T08:16:40.934Z,99568.72
2023-03-08T08:19:42.232Z,99562.28
2023-03-08T08:22:43.560Z,99566.63
2023-03-08T08:25:45.901Z,99568.84
2023-03-08T08:28:51.493Z,99561.31
2023-03-08T08:31:52.861Z,99551.38
2023-03-08T08:34:54.194Z,99546.78
2023-03-08T08:37:55.600Z,99550.31
2023-03-08T08:40:59.166Z,99547.78
2023-03-08T08:44:01.164Z,99553.13
2023-03-08T08:47:02.705Z,99549.22
2023-03-08T08:50:04.833Z,99546.16
2023-03-08T08:53:06.402Z,99542.97
2023-03-08T08:56:25.608Z,99530.16
2023-03-08T08:59:28.913Z,99524.38
2023-03-08T09:02:30.342Z,99524.66
2023-03-08T09:05:32.656Z,99518.97
2023-03-08T09:08:33.977Z,99522.78
2023-03-08T09:11:39.912Z,99515.44
2023-03-08T09:14:44.665Z,99514.69
2023-03-08T09:17:45.955Z,99514.78
2023-03-08T09:20:47.342Z,99511.16
2023-03-08T09:23:48.774Z,99522.50
2023-03-08T09:26:50.045Z,99516.78
2023-03-08T09:29:52.100Z,99514.97
2023-03-08T09:32:53.494Z,99517.16
2023-03-08T09:35:56.452Z,99521.63
2023-03-08T09:38:57.831Z,99512.63
2023-03-08T09:42:01.010Z,99508.53
2023-03-08T09:45:20.132Z,99503.16
2023-03-08T09:48:26.819Z,99508.34
2023-03-08T09:51:34.659Z,99496.38
2023-03-08T09:54:38.563Z,99500.00
2023-03-08T09:57:46.049Z,99493.81
2023-03-08T10:00:48.153Z,99493.81
2023-03-08T10:04:25.382Z,99485.50
2023-03-08T10:07:35.262Z,99482.66
2023-03-08T10:10:47.585Z,99477.22
2023-03-08T10:13:52.656Z,99470.16
2023-03-08T10:16:59.851Z,99469.19
2023-03-08T10:20:08.611Z,99474.06
2023-03-08T10:23:15.827Z,99467.91
2023-03-08T10:26:18.179Z,99469.25
2023-03-08T10:29:19.670Z,99466.84
2023-03-08T10:32:22.769Z,99469.63
2023-03-08T10:35:33.349Z,99464.59
2023-03-08T10:38:36.582Z,99458.84
2023-03-08T10:41:41.863Z,99464.66
2023-03-08T10:44:46.977Z,99457.06
2023-03-08T10:47:55.585Z,99457.25
2023-03-08T10:51:01.938Z,99452.31
2023-03-08T10:54:04.990Z,99444.50
2023-03-08T10:57:19.220Z,99453.53
2023-03-08T11:00:36.152Z,99443.56
2023-03-08T11:03:38.309Z,99431.13
2023-03-08T11:06:39.636Z,99420.41
2023-03-08T11:09:41.127Z,99421.84
2023-03-08T11:12:43.791Z,99416.44
2023-03-08T11:15:54.225Z,99414.72
2023-03-08T11:19:05.706Z,99415.00
2023-03-08T11:22:18.472Z,99409.13
2023-03-08T11:25:34.125Z,99393.03
2023-03-08T11:28:48.243Z,99387.56
2023-03-08T11:31:59.249Z,99389.94
2023-03-08T11:35:14.239Z,99374.41
2023-03-08T11:38:20.474Z,99384.72
2023-03-08T11:41:27.190Z,99379.28
2023-03-08T11:44:40.905Z,99373.81
2023-03-08T11:48:14.230Z,99368.25
2023-03-08T11:51:21.905Z,99362.22
2023-03-08T11:54:43.297Z,99357.63
2023-03-08T11:57:49.080Z,99354.25
2023-03-08T12:00:54.794Z,99352.31
2023-03-08T12:04:04.419Z,99349.84
2023-03-08T12:07:15.892Z,99348.25
2023-03-08T12:10:22.066Z,99339.91
2023-03-08T12:13:28.647Z,99337.19
2023-03-08T12:16:37.784Z,99336.38
2023-03-08T12:19:43.027Z,99345.13
2023-03-08T12:22:47.463Z,99332.81
2023-03-08T12:25:52.419Z,99328.66
2023-03-08T12:28:58.128Z,99322.47
2023-03-08T12:32:01.326Z,99320.63
2023-03-08T12:35:04.995Z,99314.97
2023-03-08T12:38:35.339Z,99317.19
2023-03-08T12:41:36.764Z,99313.09
2023-03-08T12:44:38.967Z,99313.94
2023-03-08T12:47:40.397Z,99311.13
2023-03-08T12:50:45.849Z,99303.25
2023-03-08T12:53:57.925Z,99304.72
2023-03-08T12:57:01.528Z,99309.38
2023-03-08T13:00:09.870Z,99305.94
2023-03-08T13:03:27.535Z,99308.16
2023-03-08T13:06:57.343Z,99304.38
2023-03-08T13:10:07.986Z,99307.06
2023-03-08T13:13:38.839Z,99306.44
2023-03-08T13:16:40.989Z,99298.75
2023-03-08T13:19:42.862Z,99300.97
2023-03-08T13:22:58.679Z,99302.81
2023-03-08T13:26:24.042Z,99297.13
2023-03-08T13:32:50.207Z,99304.94
2023-03-08T13:35:56.887Z,99304.53
2023-03-08T13:39:00.214Z,99304.06
2023-03-08T13:42:07.810Z,99298.13
2023-03-08T13:45:16.454Z,99303.13
2023-03-08T13:48:19.172Z,99301.94
2023-03-08T13:51:26.520Z,99310.22
2023-03-08T13:54:31.748Z,99303.41
2023-03-08T13:57:36.986Z,99300.84
2023-03-08T14:00:38.793Z,99297.34
2023-03-08T14:03:42.072Z,99303.41
2023-03-08T14:06:49.819Z,99300.44
2023-03-08T14:09:51.284Z,99302.56
2023-03-08T14:12:53.695Z,99304.53
2023-03-08T14:15:57.934Z,99307.41
2023-03-08T14:19:08.294Z,99305.56
2023-03-08T14:22:13.317Z,99308.66
2023-03-08T14:25:24.608Z,99300.69
2023-03-08T14:28:35.797Z,99299.44
2023-03-08T14:31:38.223Z,99301.22
2023-03-08T14:34:41.693Z,99295.72
2023-03-08T14:37:44.736Z,99296.03
2023-03-08T14:40:48.790Z,99296.19
2023-03-08T14:43:51.170Z,99284.78
2023-03-08T14:46:57.687Z,99283.72
2023-03-08T14:50:02.061Z,99275.66
2023-03-08T14:53:03.591Z,99269.59
2023-03-08T14:56:11.174Z,99277.69
2023-03-08T14:59:25.243Z,99280.44
2023-03-08T15:02:28.774Z,99281.47
2023-03-08T15:05:30.531Z,99277.25
2023-03-08T15:08:32.161Z,99276.22
2023-03-08T15:11:34.261Z,99278.94
2023-03-08T15:14:36.532Z,99274.47
2023-03-08T15:17:37.852Z,99270.47
2023-03-08T15:20:44.020Z,99262.59
2023-03-08T15:23:46.983Z,99255.41
2023-03-08T15:26:48.444Z,99253.44
2023-03-08T15:29:50.435Z,99245.72
2023-03-08T15:32:51.985Z,99252.50
2023-03-08T15:35:53.494Z,99245.00
2023-03-08T15:38:54.944Z,99248.50
2023-03-08T15:41:56.474Z,99245.41
2023-03-08T15:44:58.582Z,99241.38
2023-03-08T15:48:01.975Z,99246.75
2023-03-08T15:51:03.891Z,99237.22
2023-03-08T15:54:06.230Z,99239.69
2023-03-08T15:57:07.689Z,99230.75
2023-03-08T16:00:12.204Z,99233.88
2023-03-08T16:03:14.155Z,99234.53
2023-03-08T16:06:16.998Z,99228.41
2023-03-08T16:09:18.301Z,99228.84
2023-03-08T16:12:19.778Z,99234.66
2023-03-08T16:15:22.091Z,99229.16
2023-03-08T16:18:23.547Z,99225.31
2023-03-08T16:21:24.820Z,99226.97
2023-03-08T16:24:26.371Z,99222.75
2023-03-08T16:27:29.676Z,99220.31
2023-03-08T16:30:32.824Z,99227.31
2023-03-08T16:33:34.758Z,99229.09
2023-03-08T16:36:36.147Z,99225.84
2023-03-08T16:39:37.463Z,99213.38
2023-03-08T16:42:38.801Z,99214.34
2023-03-08T16:45:52.940Z,99222.38
2023-03-08T16:48:55.199Z,99213.44
2023-03-08T16:51:56.661Z,99214.75
2023-03-08T16:54:57.969Z,99216.41
2023-03-08T16:57:59.545Z,99212.78
2023-03-08T17:01:01.599Z,99202.63
2023-03-08T17:04:02.939Z,99206.63
2023-03-08T17:07:07.666Z,99215.34
2023-03-08T17:10:10.157Z,99218.28
2023-03-08T17:13:12.062Z,99213.09
2023-03-08T17:16:14.091Z,99211.41
2023-03-08T17:19:15.471Z,99217.88
2023-03-08T17:22:16.874Z,99220.34
2023-03-08T17:25:18.210Z,99215.25
2023-03-08T17:28:19.526Z,99217.94
2023-03-08T17:31:22.879Z,99221.59
2023-03-08T17:34:24.250Z,99217.13
2023-03-08T17:37:25.570Z,99212.78
2023-03-08T17:40:27.717Z,99213.84
2023-03-08T17:43:29.088Z,99215.25
2023-03-08T17:46:31.164Z,99199.72
2023-03-08T17:49:33.422Z,99199.22
2023-03-08T17:52:34.931Z,99200.94
2023-03-08T17:55:40.991Z,99205.31
2023-03-08T17:58:42.874Z,99197.41
2023-03-08T18:01:44.951Z,99205.88
2023-03-08T18:04:48.084Z,99205.22
2023-03-08T18:07:49.419Z,99209.38
2023-03-08T18:10:50.904Z,99198.66
2023-03-08T18:13:52.569Z,99205.38
2023-03-08T18:16:54.643Z,99204.41
2023-03-08T18:19:56.097Z,99204.41
2023-03-08T18:22:57.401Z,99209.25
2023-03-08T18:25:59.610Z,99211.72
2023-03-08T18:29:00.912Z,99210.69
2023-03-08T18:32:03.804Z,99216.56
2023-03-08T18:35:06.092Z,99218.34
2023-03-08T18:38:07.395Z,99218.09
2023-03-08T18:41:14.460Z,99214.56
2023-03-08T18:44:16.088Z,99218.56
2023-03-08T18:47:18.743Z,99230.56
2023-03-08T18:50:20.975Z,99220.91
2023-03-08T18:53:22.388Z,99216.06
2023-03-08T18:56:25.185Z,99215.38
2023-03-08T18:59:27.300Z,99209.06
2023-03-08T19:02:29.527Z,99209.63
2023-03-08T19:05:30.812Z,99199.63
2023-03-08T19:08:32.181Z,99197.22
2023-03-08T19:11:33.994Z,99201.75
2023-03-08T19:14:35.406Z,99215.69
2023-03-08T19:17:37.478Z,99199.56
2023-03-08T19:20:40.919Z,99199.78
2023-03-08T19:27:04.353Z,99205.44
2023-03-08T19:30:06.748Z,99205.69
2023-03-08T19:33:11.240Z,99184.84
2023-03-08T19:36:17.424Z,99182.97
2023-03-08T19:39:21.350Z,99187.56
2023-03-08T19:42:22.951Z,99187.16
2023-03-08T19:45:24.451Z,99184.91
2023-03-08T19:48:26.551Z,99175.72
2023-03-08T19:51:27.874Z,99171.59
2023-03-08T19:54:31.242Z,99176.44
2023-03-08T19:57:33.329Z,99181.94
2023-03-08T20:00:34.689Z,99177.34
2023-03-08T20:03:37.388Z,99187.75
2023-03-08T20:06:40.246Z,99181.16
2023-03-08T20:09:42.271Z,99176.34
2023-03-08T20:12:43.705Z,99185.28
2023-03-08T20:15:45.185Z,99183.50
2023-03-08T20:18:48.981Z,99192.75
2023-03-08T20:21:56.271Z,99185.53
2023-03-08T20:24:57.573Z,99184.09
2023-03-08T20:27:58.873Z,99173.34
2023-03-08T20:31:00.343Z,99189.34
2023-03-08T20:34:02.785Z,99175.31
2023-03-08T20:37:04.075Z,99173.91
2023-03-08T20:40:06.294Z,99173.91
2023-03-08T20:43:10.161Z,99175.63
2023-03-08T20:46:13.562Z,99182.03
2023-03-08T20:49:16.033Z,99183.72
2023-03-08T20:52:17.378Z,99173.47
2023-03-08T20:55:19.022Z,99171.59
2023-03-08T20:58:20.473Z,99173.16
2023-03-08T21:01:24.541Z,99182.16
2023-03-08T21:04:26.767Z,99162.25
2023-03-08T21:07:28.088Z,99162.19
2023-03-08T21:10:32.236Z,99171.69
2023-03-08T21:13:33.736Z,99177.38
2023-03-08T21:16:35.354Z,99168.19
2023-03-08T21:19:37.522Z,99174.81
2023-03-08T21:22:38.805Z,99176.38
2023-03-08T21:25:40.268Z,99171.22
2023-03-08T21:28:41.871Z,99176.00
2023-03-08T21:31:45.269Z,99173.84
2023-03-08T21:34:47.411Z,99179.00
2023-03-08T21:37:48.705Z,99183.19
2023-03-08T21:40:50.179Z,99180.53
2023-03-08T21:43:52.063Z,99182.16
2023-03-08T21:46:54.986Z,99186.56
2023-03-08T21:49:57.160Z,99176.44
2023-03-08T21:52:58.690Z,99172.72
2023-03-08T21:56:00.251Z,99157.91
2023-03-08T21:59:01.592Z,99166.66
2023-03-08T22:02:03.056Z,99172.09
2023-03-08T22:05:06.245Z,99160.81
2023-03-08T22:08:08.006Z,99170.38
2023-03-08T22:11:09.733Z,99172.72
2023-03-08T22:14:11.407Z,99172.50
2023-03-08T22:17:13.340Z,99176.09
2023-03-08T22:20:15.385Z,99175.91
2023-03-08T22:23:16.818Z,99165.19
2023-03-08T22:26:19.040Z,99154.13
2023-03-08T22:29:20.361Z,99148.41
2023-03-08T22:32:22.257Z,99154.66
2023-03-08T22:35:24.330Z,99151.06
2023-03-08T22:38:25.777Z,99150.72
2023-03-08T22:41:27.904Z,99140.97
2023-03-08T22:44:29.494Z,99141.72
2023-03-08T22:47:30.964Z,99131.19
2023-03-08T22:50:33.014Z,99136.38
2023-03-08T22:53:34.796Z,99138.63
2023-03-08T22:56:36.608Z,99117.84
2023-03-08T22:59:38.058Z,99113.50
2023-03-08T23:02:40.034Z,99130.91
2023-03-08T23:05:42.135Z,99117.13
2023-03-08T23:08:43.455Z,99115.16
2023-03-08T23:11:45.214Z,99118.03
2023-03-08T23:14:46.484Z,99125.75
2023-03-08T23:17:47.930Z,99109.41
2023-03-08T23:20:50.023Z,99106.16
2023-03-08T23:23:51.473Z,99105.66
2023-03-08T23:26:59.629Z,99094.81
2023-03-08T23:30:00.938Z,99097.50
2023-03-08T23:33:02.572Z,99097.03
2023-03-08T23:36:05.667Z,99080.94
2023-03-08T23:39:07.590Z,99073.47
2023-03-08T23:42:08.877Z,99092.94
2023-03-08T23:45:10.676Z,99092.84
2023-03-08T23:48:12.189Z,99087.66
2023-03-08T23:51:16.198Z,99070.94
2023-03-08T23:54:17.705Z,99075.25
2023-03-08T23:57:19.083Z,99078.56
